Time;durP1;ratioP1;P1;durP2;ratioP2;P2;SDS_P1;SDS_P2;PMS_P1;PMS_P2;Temp;Humidity;BMP_temperature;BMP_pressure;BME280_temperature;BME280_humidity;BME280_pressure;Samples;Min_cycle;Max_cycle;Signal;HPM_P1;HPM_P2
2022/06/16 00:01:40;;;;;;;12.52;4.63;;;12.80;99.90;;;;;;5001156;28;20042;-67
2022/06/16 00:04:06;;;;;;;8.30;3.85;;;12.80;99.90;;;;;;5007646;28;20045;-68
2022/06/16 00:06:33;;;;;;;11.95;4.00;;;12.80;99.90;;;;;;5006907;28;20423;-68
2022/06/16 00:08:58;;;;;;;10.65;3.72;;;12.80;99.90;;;;;;5007429;28;20045;-68
2022/06/16 00:11:24;;;;;;;8.45;3.50;;;12.80;99.90;;;;;;5002147;28;20057;-69
2022/06/16 00:13:51;;;;;;;13.55;4.18;;;12.80;99.90;;;;;;5006950;28;20046;-68
2022/06/16 00:16:19;;;;;;;6.50;3.20;;;12.80;99.90;;;;;;4958147;28;1427643;-68
2022/06/16 00:18:45;;;;;;;8.13;3.33;;;12.90;99.90;;;;;;5002878;28;20053;-68
2022/06/16 00:21:12;;;;;;;10.57;3.85;;;12.80;99.90;;;;;;4989242;28;20495;-68
2022/06/16 00:23:39;;;;;;;8.20;4.00;;;12.80;99.90;;;;;;5001201;28;20034;-68
2022/06/16 00:26:11;;;;;;;9.88;3.83;;;12.80;99.90;;;;;;4998513;28;20045;-68
2022/06/16 00:28:36;;;;;;;11.45;4.72;;;12.80;99.90;;;;;;5000583;28;20377;-68
2022/06/16 00:31:04;;;;;;;10.35;4.82;;;12.90;99.90;;;;;;4992995;28;20266;-69
2022/06/16 00:33:33;;;;;;;8.48;4.03;;;12.80;99.90;;;;;;5000468;28;20077;-68
2022/06/16 00:35:59;;;;;;;9.90;4.07;;;12.70;99.90;;;;;;5001757;28;20440;-69
2022/06/16 00:38:24;;;;;;;9.23;4.03;;;12.80;99.90;;;;;;4998654;28;20050;-69
2022/06/16 00:40:51;;;;;;;10.32;4.45;;;12.60;99.90;;;;;;5003237;28;20057;-68
2022/06/16 00:43:17;;;;;;;8.38;3.97;;;12.60;99.90;;;;;;4982289;28;20049;-68
2022/06/16 00:45:56;;;;;;;7.32;4.07;;;12.60;99.90;;;;;;4996619;28;20046;-68
2022/06/16 00:48:25;;;;;;;10.60;3.55;;;12.50;99.90;;;;;;4994012;28;20443;-68
2022/06/16 00:50:58;;;;;;;9.23;3.83;;;12.50;99.90;;;;;;4999074;28;20046;-69
2022/06/16 00:53:26;;;;;;;10.13;3.53;;;12.50;99.90;;;;;;5003841;28;20050;-69
2022/06/16 00:55:52;;;;;;;8.07;4.00;;;12.50;99.90;;;;;;5001949;28;20042;-68
2022/06/16 00:58:21;;;;;;;9.80;4.07;;;12.50;99.90;;;;;;5005620;28;20038;-69
2022/06/16 01:00:46;;;;;;;10.50;4.13;;;12.50;99.90;;;;;;5004133;28;20080;-69
2022/06/16 01:03:14;;;;;;;6.97;3.55;;;12.50;99.90;;;;;;4981018;28;20069;-68
2022/06/16 01:05:39;;;;;;;9.43;3.35;;;12.50;99.90;;;;;;4997848;28;20252;-68
2022/06/16 01:08:07;;;;;;;9.70;4.40;;;12.50;99.90;;;;;;4981457;28;20167;-69
2022/06/16 01:10:46;;;;;;;7.20;3.63;;;12.40;99.90;;;;;;5000449;28;20092;-69
2022/06/16 01:16:32;;;;;;;8.00;3.40;;;12.40;99.90;;;;;;5001525;28;20044;-69
2022/06/16 01:19:24;;;;;;;9.48;3.92;;;12.30;99.90;;;;;;4986759;28;20334;-68
2022/06/16 01:22:03;;;;;;;10.32;3.90;;;12.30;99.90;;;;;;4990855;28;20120;-68
2022/06/16 01:24:35;;;;;;;8.05;4.03;;;12.30;99.90;;;;;;5004031;28;20042;-68
2022/06/16 01:27:38;;;;;;;11.40;4.05;;;12.30;99.90;;;;;;5004520;28;20064;-69
2022/06/16 01:30:10;;;;;;;9.52;3.67;;;12.40;99.90;;;;;;5001527;28;20148;-69
2022/06/16 01:32:45;;;;;;;8.13;3.50;;;12.40;99.90;;;;;;4999479;28;20046;-68
2022/06/16 01:35:14;;;;;;;11.30;3.80;;;12.40;99.90;;;;;;4996129;28;20046;-68
2022/06/16 01:37:51;;;;;;;7.68;3.60;;;12.40;99.90;;;;;;5006142;28;20034;-69
2022/06/16 01:40:26;;;;;;;8.57;3.97;;;12.40;99.90;;;;;;5022154;28;20410;-68
2022/06/16 01:43:12;;;;;;;9.27;4.63;;;12.30;99.90;;;;;;5003927;28;20125;-69
2022/06/16 01:45:51;;;;;;;9.57;3.78;;;12.40;99.90;;;;;;5003322;28;20038;-69
2022/06/16 01:48:19;;;;;;;7.25;3.22;;;12.40;99.90;;;;;;4994547;28;20046;-68
2022/06/16 01:50:52;;;;;;;9.43;3.70;;;12.30;99.90;;;;;;5002816;28;20133;-68
2022/06/16 01:53:26;;;;;;;8.05;3.53;;;12.30;99.90;;;;;;5000526;28;20095;-68
2022/06/16 01:56:01;;;;;;;9.50;3.35;;;12.30;99.90;;;;;;5003408;28;20452;-69
2022/06/16 01:58:33;;;;;;;8.95;3.55;;;12.30;99.90;;;;;;5003523;28;20042;-69
2022/06/16 02:01:03;;;;;;;7.80;3.35;;;12.30;99.90;;;;;;5017681;28;20514;-69
2022/06/16 02:03:38;;;;;;;7.07;3.75;;;12.30;99.90;;;;;;4998924;28;20042;-69
2022/06/16 02:06:20;;;;;;;10.07;3.40;;;12.30;99.90;;;;;;5001539;28;20408;-68
2022/06/16 02:08:53;;;;;;;9.77;3.80;;;12.30;99.90;;;;;;5005653;28;20049;-68
2022/06/16 02:11:33;;;;;;;8.82;3.47;;;12.30;99.90;;;;;;4986868;28;20410;-69
2022/06/16 02:14:08;;;;;;;8.32;3.85;;;12.40;99.90;;;;;;4999011;28;20057;-69
2022/06/16 02:16:36;;;;;;;9.88;3.75;;;12.40;99.90;;;;;;5004363;28;20570;-69
2022/06/16 02:19:06;;;;;;;7.50;3.67;;;12.40;99.90;;;;;;4985980;28;20053;-69
2022/06/16 02:21:39;;;;;;;8.48;3.55;;;12.40;99.90;;;;;;5005002;28;20049;-69
2022/06/16 02:24:08;;;;;;;8.20;3.55;;;12.40;99.90;;;;;;4986685;28;20645;-69
2022/06/16 02:26:34;;;;;;;10.20;3.50;;;12.30;99.90;;;;;;5020220;28;20065;-69
2022/06/16 02:29:17;;;;;;;6.97;2.97;;;12.30;99.90;;;;;;5002486;28;20506;-68
2022/06/16 02:31:57;;;;;;;10.15;3.42;;;12.30;99.90;;;;;;5005262;28;20387;-69
2022/06/16 02:34:34;;;;;;;6.95;3.03;;;12.20;99.90;;;;;;5004683;28;20053;-68
2022/06/16 02:37:08;;;;;;;8.65;3.60;;;12.10;99.90;;;;;;5002425;28;20407;-69
2022/06/16 02:39:46;;;;;;;8.40;3.08;;;12.10;99.90;;;;;;5004961;28;20045;-69
2022/06/16 02:42:37;;;;;;;7.07;2.90;;;12.00;99.90;;;;;;4986811;28;20065;-68
2022/06/16 02:45:10;;;;;;;8.13;2.97;;;12.00;99.90;;;;;;5003782;28;20033;-68
2022/06/16 02:48:30;;;;;;;8.02;2.97;;;12.00;99.90;;;;;;5001934;28;20115;-69
2022/06/16 02:51:07;;;;;;;7.85;2.97;;;12.00;99.90;;;;;;4963294;28;20443;-69
2022/06/16 02:56:23;;;;;;;9.30;3.28;;;11.80;99.90;;;;;;5019869;28;20329;-69
2022/06/16 02:58:50;;;;;;;10.07;3.45;;;11.80;99.90;;;;;;5002616;28;20137;-69
2022/06/16 03:01:18;;;;;;;7.93;3.28;;;11.80;99.90;;;;;;4996466;28;20049;-69
2022/06/16 03:04:01;;;;;;;7.25;3.05;;;11.80;99.90;;;;;;5002810;28;20045;-69
2022/06/16 03:06:27;;;;;;;8.73;3.22;;;11.80;99.90;;;;;;4995644;28;20144;-69
2022/06/16 03:08:53;;;;;;;6.85;3.42;;;11.90;99.90;;;;;;5003445;28;20062;-69
2022/06/16 03:11:18;;;;;;;6.90;2.95;;;11.80;99.90;;;;;;4986965;28;20076;-69
2022/06/16 03:13:44;;;;;;;6.45;2.97;;;11.80;99.90;;;;;;5008366;28;20397;-69
2022/06/16 03:16:10;;;;;;;5.50;2.85;;;11.80;99.90;;;;;;5001071;28;20076;-69
2022/06/16 03:18:36;;;;;;;8.13;3.30;;;11.70;99.90;;;;;;4991719;28;20137;-69
2022/06/16 03:21:02;;;;;;;10.70;3.22;;;11.70;99.90;;;;;;5000924;28;20490;-69
2022/06/16 03:23:28;;;;;;;7.30;3.20;;;11.80;99.90;;;;;;4984222;28;20049;-68
2022/06/16 03:25:54;;;;;;;9.15;3.38;;;11.70;99.90;;;;;;5001874;28;20077;-69
2022/06/16 03:28:20;;;;;;;8.73;3.35;;;11.70;99.90;;;;;;5004512;28;20573;-68
2022/06/16 03:30:45;;;;;;;7.70;3.33;;;11.80;99.90;;;;;;5005916;28;20420;-68
2022/06/16 03:33:12;;;;;;;8.40;3.50;;;11.80;99.90;;;;;;5002602;28;20045;-68
2022/06/16 03:35:39;;;;;;;9.85;3.10;;;11.80;99.90;;;;;;4975821;28;20060;-69
2022/06/16 03:38:09;;;;;;;10.55;3.20;;;11.90;99.90;;;;;;4975298;28;20553;-68
2022/06/16 03:40:35;;;;;;;8.10;3.70;;;11.80;99.90;;;;;;5007397;28;20042;-69
2022/06/16 03:43:01;;;;;;;10.63;3.78;;;11.90;99.90;;;;;;4972400;28;20049;-69
2022/06/16 03:45:27;;;;;;;8.38;3.92;;;11.90;99.90;;;;;;4974099;28;20094;-69
2022/06/16 03:47:52;;;;;;;7.38;3.28;;;11.90;99.90;;;;;;4972989;28;20057;-68
2022/06/16 03:50:19;;;;;;;9.77;3.97;;;11.90;99.90;;;;;;4988688;28;20050;-69
2022/06/16 03:52:44;;;;;;;8.45;3.80;;;11.80;99.90;;;;;;4983994;28;20046;-69
2022/06/16 03:55:11;;;;;;;7.50;3.58;;;11.80;99.90;;;;;;4990792;28;20159;-69
2022/06/16 03:57:37;;;;;;;8.98;3.88;;;11.80;99.90;;;;;;4990681;28;20038;-69
2022/06/16 04:00:07;;;;;;;7.13;3.65;;;11.90;99.90;;;;;;4990212;28;20100;-69
2022/06/16 04:02:32;;;;;;;9.45;4.10;;;11.90;99.90;;;;;;4978188;28;20511;-69
2022/06/16 04:05:00;;;;;;;8.85;3.85;;;12.00;99.90;;;;;;4997448;28;20156;-69
2022/06/16 04:07:27;;;;;;;8.80;4.10;;;12.00;99.90;;;;;;4979155;28;20136;-69
2022/06/16 04:09:53;;;;;;;8.15;4.28;;;12.10;99.90;;;;;;4984293;28;20899;-69
2022/06/16 04:12:19;;;;;;;8.27;3.88;;;12.10;99.90;;;;;;4991875;28;20446;-69
2022/06/16 04:14:44;;;;;;;8.30;3.83;;;12.20;99.90;;;;;;4988657;28;20446;-69
2022/06/16 04:17:10;;;;;;;8.00;4.00;;;12.20;99.90;;;;;;5004302;28;20073;-69
2022/06/16 04:20:11;;;;;;;10.07;4.20;;;12.30;99.90;;;;;;4999448;28;20537;-69
2022/06/16 04:22:22;;;;;;;11.60;3.80;;;12.40;99.90;;;;;;4998458;28;20046;-69
2022/06/16 04:24:48;;;;;;;12.43;4.55;;;12.50;99.90;;;;;;4995874;28;20304;-69
2022/06/16 04:27:13;;;;;;;7.63;4.07;;;12.60;99.90;;;;;;4993915;28;20037;-68
2022/06/16 04:29:39;;;;;;;12.93;4.60;;;12.70;99.90;;;;;;4982103;28;20407;-69
2022/06/16 04:32:05;;;;;;;11.23;4.60;;;12.80;99.90;;;;;;4996174;28;20146;-69
2022/06/16 04:34:31;;;;;;;12.43;4.90;;;12.90;99.90;;;;;;4990302;28;20046;-69
2022/06/16 04:36:57;;;;;;;10.23;4.05;;;13.70;99.90;;;;;;4993866;28;20037;-69
2022/06/16 04:39:23;;;;;;;8.75;4.07;;;15.00;99.90;;;;;;5001442;28;21176;-69
2022/06/16 04:41:48;;;;;;;9.35;3.95;;;16.40;99.90;;;;;;5001875;28;20074;-69
2022/06/16 04:44:14;;;;;;;8.77;3.97;;;17.80;99.90;;;;;;5003822;28;20042;-69
2022/06/16 04:46:40;;;;;;;10.38;3.45;;;19.00;99.90;;;;;;5004639;28;20561;-70
2022/06/16 04:49:06;;;;;;;11.55;3.60;;;19.80;99.90;;;;;;5002946;28;20042;-69
2022/06/16 04:51:31;;;;;;;9.32;3.80;;;20.00;99.90;;;;;;5006040;28;20078;-69
2022/06/16 04:53:57;;;;;;;9.10;3.95;;;19.50;99.90;;;;;;4987589;28;20042;-69
2022/06/16 04:56:23;;;;;;;10.55;3.95;;;19.00;99.90;;;;;;4993178;28;20659;-69
2022/06/16 04:58:48;;;;;;;10.10;3.95;;;18.60;99.90;;;;;;5000841;28;20045;-69
2022/06/16 05:01:14;;;;;;;10.25;3.60;;;18.40;99.90;;;;;;5002582;28;20041;-69
2022/06/16 05:03:40;;;;;;;10.70;4.22;;;18.70;99.90;;;;;;4999736;28;20037;-70
2022/06/16 05:06:05;;;;;;;7.72;3.17;;;18.40;99.90;;;;;;4990206;28;20073;-70
2022/06/16 05:08:31;;;;;;;7.90;3.35;;;18.20;99.90;;;;;;4998461;28;21179;-71
2022/06/16 05:10:57;;;;;;;7.43;3.28;;;17.90;99.90;;;;;;4982646;28;20046;-70
2022/06/16 05:13:23;;;;;;;6.45;3.08;;;17.70;99.90;;;;;;5001714;28;20041;-69
2022/06/16 05:15:53;;;;;;;6.55;2.72;;;17.40;99.90;;;;;;4998826;28;20046;-69
2022/06/16 05:18:19;;;;;;;6.65;2.88;;;17.20;99.90;;;;;;4996103;28;20046;-69
2022/06/16 05:20:44;;;;;;;7.60;2.85;;;17.20;99.90;;;;;;4998365;28;20041;-69
2022/06/16 05:23:11;;;;;;;7.40;2.80;;;17.70;99.90;;;;;;4995377;28;20038;-69
2022/06/16 05:25:39;;;;;;;7.63;3.17;;;17.60;99.90;;;;;;5000993;28;20056;-69
2022/06/16 05:28:05;;;;;;;10.45;3.00;;;18.30;99.90;;;;;;4997357;28;20046;-69
2022/06/16 05:30:32;;;;;;;8.48;3.20;;;18.50;99.90;;;;;;5012563;28;20050;-69
2022/06/16 05:32:57;;;;;;;5.78;2.70;;;18.20;99.90;;;;;;4997408;28;20456;-70
2022/06/16 05:35:23;;;;;;;6.95;2.90;;;18.00;99.90;;;;;;4999725;28;20046;-69
2022/06/16 05:37:49;;;;;;;6.63;2.90;;;17.80;99.90;;;;;;4991717;28;20541;-69
2022/06/16 05:40:15;;;;;;;8.45;2.80;;;17.60;99.90;;;;;;4990979;28;20130;-70
2022/06/16 05:42:41;;;;;;;6.63;3.10;;;17.50;99.90;;;;;;4998866;28;20045;-69
2022/06/16 05:45:09;;;;;;;7.47;2.90;;;17.40;99.90;;;;;;4979805;28;20125;-69
2022/06/16 05:47:39;;;;;;;7.05;2.70;;;17.20;99.90;;;;;;4996478;28;20048;-69
2022/06/16 05:50:06;;;;;;;8.77;3.22;;;17.10;99.90;;;;;;5000822;28;20042;-69
2022/06/16 05:52:32;;;;;;;8.90;3.03;;;17.00;99.90;;;;;;4999512;28;20049;-69
2022/06/16 05:54:58;;;;;;;7.47;2.60;;;16.90;99.90;;;;;;4995556;28;20048;-69
2022/06/16 05:57:24;;;;;;;9.35;2.63;;;17.10;99.90;;;;;;4992410;28;20077;-69
2022/06/16 05:59:50;;;;;;;9.13;2.72;;;18.60;99.90;;;;;;4988829;28;20045;-69
2022/06/16 06:02:20;;;;;;;6.00;2.17;;;20.10;99.90;;;;;;4983457;28;20042;-69
2022/06/16 06:04:48;;;;;;;8.20;2.25;;;21.80;99.90;;;;;;4997057;28;20092;-70
2022/06/16 06:07:15;;;;;;;7.20;2.22;;;23.10;99.90;;;;;;4993604;28;20057;-69
2022/06/16 06:18:21;;;;;;;4.53;1.33;;;27.00;99.40;;;;;;4973453;28;20038;-69
2022/06/16 06:20:47;;;;;;;8.43;1.52;;;27.60;98.00;;;;;;4968677;28;20136;-69
2022/06/16 06:23:13;;;;;;;3.95;1.30;;;27.30;94.50;;;;;;4969456;28;20133;-69
2022/06/16 06:25:39;;;;;;;7.80;1.58;;;25.50;96.00;;;;;;4995781;28;20044;-70
2022/06/16 06:28:05;;;;;;;5.20;1.70;;;24.00;98.20;;;;;;4981881;28;20042;-69
2022/06/16 06:30:33;;;;;;;5.20;1.70;;;22.80;99.90;;;;;;4967281;28;20061;-69
2022/06/16 06:33:00;;;;;;;3.90;1.30;;;22.00;99.90;;;;;;4996201;28;20793;-69
2022/06/16 06:35:26;;;;;;;7.68;1.42;;;21.20;99.90;;;;;;4977099;28;20088;-69
2022/06/16 06:37:52;;;;;;;4.78;1.60;;;20.60;99.90;;;;;;4979261;28;20046;-70
2022/06/16 06:40:24;;;;;;;7.60;1.75;;;20.10;99.90;;;;;;4996873;28;20112;-70
2022/06/16 06:42:49;;;;;;;6.95;1.42;;;19.60;99.90;;;;;;4987855;28;20148;-69
2022/06/16 06:45:17;;;;;;;3.80;1.15;;;19.10;99.90;;;;;;5004906;28;20041;-70
2022/06/16 06:47:43;;;;;;;4.22;1.00;;;18.80;99.90;;;;;;5006051;28;20049;-70
2022/06/16 06:50:18;;;;;;;6.57;1.20;;;18.60;99.90;;;;;;5004472;28;20045;-70
2022/06/16 06:52:43;;;;;;;5.43;1.25;;;18.30;99.90;;;;;;4989450;28;20048;-69
2022/06/16 06:55:09;;;;;;;5.30;1.20;;;18.10;99.90;;;;;;5003054;28;20034;-70
2022/06/16 06:57:35;;;;;;;3.50;1.00;;;18.00;99.90;;;;;;4995799;28;20050;-70
2022/06/16 07:00:00;;;;;;;2.95;0.88;;;17.90;99.90;;;;;;4985568;28;20438;-70
2022/06/16 07:02:26;;;;;;;6.32;1.50;;;17.80;99.90;;;;;;4997991;28;20156;-70
2022/06/16 07:04:53;;;;;;;5.90;1.30;;;17.70;99.90;;;;;;4985228;28;20445;-69
2022/06/16 07:07:23;;;;;;;5.28;1.60;;;17.70;99.90;;;;;;4966252;28;20046;-70
2022/06/16 07:09:49;;;;;;;5.78;1.50;;;17.90;99.90;;;;;;4996930;28;20409;-70
2022/06/16 07:12:14;;;;;;;5.05;1.38;;;18.00;99.90;;;;;;4980566;28;20042;-71
2022/06/16 07:14:46;;;;;;;4.45;1.25;;;18.30;99.90;;;;;;4975909;28;21399;-71
2022/06/16 07:17:12;;;;;;;;;;;18.70;99.90;;;;;;4982489;28;20096;-67
2022/06/16 07:19:38;;;;;;;5.15;1.48;;;19.00;99.90;;;;;;5003751;28;20421;-69
2022/06/16 07:22:05;;;;;;;6.22;1.50;;;19.60;99.90;;;;;;4980593;28;20718;-69
2022/06/16 07:24:31;;;;;;;3.45;1.30;;;20.00;99.90;;;;;;5007276;28;20111;-69
2022/06/16 07:26:57;;;;;;;4.13;1.60;;;20.10;99.90;;;;;;4992995;28;20053;-69
2022/06/16 07:29:23;;;;;;;6.60;1.67;;;20.30;99.90;;;;;;4996434;28;20054;-69
2022/06/16 07:31:49;;;;;;;8.68;1.42;;;20.50;99.90;;;;;;4992186;28;20421;-69
2022/06/16 07:34:15;;;;;;;7.50;2.03;;;20.70;99.90;;;;;;4993220;28;20073;-69
2022/06/16 07:36:41;;;;;;;5.75;1.33;;;20.90;99.90;;;;;;4997420;28;20068;-69
2022/06/16 07:39:07;;;;;;;3.67;1.25;;;21.10;99.90;;;;;;4999620;28;20050;-70
2022/06/16 07:41:36;;;;;;;4.60;1.70;;;21.30;99.90;;;;;;4997304;28;20041;-69
2022/06/16 07:44:11;;;;;;;7.85;1.63;;;21.60;99.90;;;;;;4997419;28;20038;-69
2022/06/16 07:46:38;;;;;;;7.20;1.85;;;21.80;99.90;;;;;;5000064;28;21108;-69
2022/06/16 07:49:05;;;;;;;5.32;1.65;;;21.90;99.90;;;;;;4985310;28;20496;-68
2022/06/16 07:51:31;;;;;;;5.78;2.10;;;22.10;99.90;;;;;;4985700;28;20049;-70
2022/06/16 07:53:57;;;;;;;5.40;1.92;;;22.30;99.90;;;;;;4986618;28;20045;-69
2022/06/16 07:56:23;;;;;;;7.07;1.77;;;22.50;99.90;;;;;;5003139;28;20410;-69
2022/06/16 07:58:49;;;;;;;7.63;2.20;;;22.60;99.90;;;;;;4984279;28;20082;-69
2022/06/16 08:01:15;;;;;;;7.30;2.15;;;22.70;99.90;;;;;;5000302;28;20056;-70
2022/06/16 08:03:41;;;;;;;9.70;2.65;;;22.80;99.90;;;;;;5002203;28;20526;-70
2022/06/16 08:06:10;;;;;;;7.28;2.03;;;22.80;99.90;;;;;;4998271;28;20042;-69
2022/06/16 08:08:37;;;;;;;6.20;1.73;;;22.90;99.90;;;;;;4995627;28;20069;-69
2022/06/16 08:11:03;;;;;;;7.82;2.33;;;23.20;99.90;;;;;;5000187;28;20041;-69
2022/06/16 08:13:29;;;;;;;6.72;1.90;;;23.30;98.10;;;;;;5017222;28;20046;-69
2022/06/16 08:15:55;;;;;;;5.60;1.90;;;23.30;99.90;;;;;;5002106;28;20485;-69
2022/06/16 08:18:23;;;;;;;5.93;1.80;;;23.30;98.30;;;;;;5000809;28;20045;-69
2022/06/16 08:20:51;;;;;;;4.03;1.63;;;23.40;99.80;;;;;;4982525;28;20077;-70
2022/06/16 08:23:17;;;;;;;6.35;1.85;;;23.60;99.40;;;;;;4984095;28;20503;-70
2022/06/16 08:25:45;;;;;;;5.50;2.33;;;23.80;99.40;;;;;;4985504;28;20420;-70
2022/06/16 08:28:13;;;;;;;7.90;2.50;;;23.70;93.20;;;;;;4985870;28;20056;-69
2022/06/16 08:30:44;;;;;;;7.43;2.30;;;23.60;96.40;;;;;;4969183;28;20076;-70
2022/06/16 08:33:16;;;;;;;6.65;1.95;;;23.70;97.20;;;;;;4983312;28;20042;-70
2022/06/16 08:35:44;;;;;;;5.70;2.15;;;23.80;96.80;;;;;;4995036;28;20057;-69
2022/06/16 08:38:10;;;;;;;7.38;2.40;;;24.00;95.70;;;;;;4976962;28;20061;-70
2022/06/16 08:40:42;;;;;;;9.85;2.30;;;24.00;91.80;;;;;;4982684;28;20045;-71
2022/06/16 08:43:22;;;;;;;8.25;2.60;;;23.80;91.30;;;;;;4980584;28;20138;-70
2022/06/16 08:45:55;;;;;;;6.10;1.92;;;23.50;92.10;;;;;;4978744;28;20095;-70
2022/06/16 08:48:45;;;;;;;6.35;2.30;;;23.10;90.50;;;;;;4978229;28;20120;-69
2022/06/16 08:51:44;;;;;;;7.47;2.30;;;22.80;92.30;;;;;;4983849;28;20683;-67
2022/06/16 08:54:10;;;;;;;5.20;2.42;;;22.70;94.50;;;;;;4999295;28;20091;-70
2022/06/16 08:56:41;;;;;;;5.53;1.95;;;22.60;94.80;;;;;;4988792;28;20434;-70
2022/06/16 08:59:29;;;;;;;5.07;2.10;;;22.80;95.00;;;;;;4983824;28;20092;-70
2022/06/16 09:02:07;;;;;;;6.35;2.38;;;23.20;96.00;;;;;;4999743;28;20049;-70
2022/06/16 09:04:50;;;;;;;5.55;2.30;;;23.60;93.50;;;;;;4979127;28;20096;-70
2022/06/16 09:07:35;;;;;;;5.63;2.20;;;23.80;94.90;;;;;;4985695;28;20151;-70
2022/06/16 09:10:30;;;;;;;5.32;2.40;;;24.10;93.50;;;;;;4984838;28;20030;-70
2022/06/16 09:13:21;;;;;;;7.57;2.90;;;24.30;91.90;;;;;;5002107;28;20052;-70
2022/06/16 09:15:59;;;;;;;7.30;2.70;;;24.30;88.30;;;;;;5002282;28;20073;-69
2022/06/16 09:18:46;;;;;;;6.57;2.58;;;24.20;88.70;;;;;;5000980;28;20403;-68
2022/06/16 09:21:12;;;;;;;6.07;2.30;;;24.10;87.10;;;;;;4984675;28;20049;-70
2022/06/16 09:23:58;;;;;;;5.97;2.20;;;24.00;85.80;;;;;;5002835;28;20050;-70
2022/06/16 09:26:33;;;;;;;7.40;2.63;;;24.10;89.60;;;;;;4981758;28;20180;-69
2022/06/16 09:29:24;;;;;;;5.13;2.33;;;24.20;88.70;;;;;;4996087;28;20066;-69
2022/06/16 09:32:13;;;;;;;7.53;2.63;;;24.50;91.30;;;;;;4992664;28;20418;-70
2022/06/16 09:34:45;;;;;;;8.25;2.88;;;24.70;88.70;;;;;;5000690;28;20349;-70
2022/06/16 09:37:19;;;;;;;7.15;2.58;;;24.80;88.70;;;;;;4997412;28;20042;-69
2022/06/16 09:40:06;;;;;;;5.57;2.40;;;25.00;89.90;;;;;;5000184;28;21322;-70
2022/06/16 09:42:55;;;;;;;5.57;2.47;;;25.20;89.80;;;;;;4997988;28;20104;-71
2022/06/16 09:46:05;;;;;;;6.95;2.60;;;25.40;88.00;;;;;;4977725;28;20049;-69
2022/06/16 09:48:34;;;;;;;6.57;2.85;;;25.40;86.80;;;;;;4924552;28;20055;-69
2022/06/16 09:51:12;;;;;;;9.02;2.70;;;25.50;85.20;;;;;;5007889;28;20453;-69
2022/06/16 09:54:21;;;;;;;8.18;2.83;;;25.60;86.70;;;;;;5019367;28;20461;-69
2022/06/16 09:56:54;;;;;;;8.13;2.90;;;25.60;84.70;;;;;;4929178;28;20200;-69
2022/06/16 09:59:32;;;;;;;7.03;2.72;;;25.70;84.80;;;;;;4974672;28;20339;-69
2022/06/16 10:02:04;;;;;;;7.30;2.80;;;25.60;82.60;;;;;;4998088;28;20092;-70
2022/06/16 10:04:30;;;;;;;8.52;2.50;;;25.50;80.30;;;;;;4978929;28;20514;-69
2022/06/16 10:07:05;;;;;;;7.80;2.50;;;25.50;80.40;;;;;;4998225;28;20143;-70
2022/06/16 10:09:50;;;;;;;6.78;2.72;;;25.50;82.20;;;;;;4996570;28;20042;-69
2022/06/16 10:12:23;;;;;;;6.38;2.40;;;25.50;80.40;;;;;;5012677;28;20050;-69
2022/06/16 10:15:10;;;;;;;8.27;2.70;;;25.60;82.20;;;;;;5004638;28;20112;-68
2022/06/16 10:17:40;;;;;;;7.18;2.55;;;25.70;82.80;;;;;;5004722;28;20859;-69
2022/06/16 10:20:06;;;;;;;5.63;2.58;;;25.80;83.90;;;;;;5004215;28;20049;-70
2022/06/16 10:22:35;;;;;;;7.65;2.75;;;25.90;83.70;;;;;;4997944;28;20560;-69
2022/06/16 10:25:05;;;;;;;6.28;2.25;;;26.00;81.20;;;;;;5002555;28;20050;-69
2022/06/16 10:27:49;;;;;;;8.83;2.60;;;25.90;80.30;;;;;;4996526;28;20111;-70
2022/06/16 10:30:21;;;;;;;7.30;2.30;;;25.90;79.40;;;;;;4999191;28;20428;-69
2022/06/16 10:32:59;;;;;;;5.07;1.90;;;26.00;81.60;;;;;;4979288;28;20410;-69
2022/06/16 10:35:26;;;;;;;7.05;2.17;;;26.20;83.00;;;;;;4998327;28;20557;-68
2022/06/16 10:37:53;;;;;;;6.30;2.67;;;26.30;82.20;;;;;;4994982;28;20529;-70
2022/06/16 10:40:32;;;;;;;5.88;1.95;;;26.10;76.60;;;;;;4980820;28;20365;-68
2022/06/16 10:43:08;;;;;;;7.35;2.55;;;25.60;78.60;;;;;;4996375;28;20093;-67
2022/06/16 10:45:37;;;;;;;7.05;1.90;;;25.40;75.90;;;;;;4985915;28;20061;-68
2022/06/16 10:48:16;;;;;;;6.28;2.08;;;25.50;81.00;;;;;;5015257;28;20401;-68
2022/06/16 10:50:48;;;;;;;9.10;2.53;;;25.70;84.00;;;;;;5002070;28;20057;-68
2022/06/16 10:53:34;;;;;;;6.35;2.50;;;25.80;79.90;;;;;;5012339;28;20074;-68
2022/06/16 10:56:10;;;;;;;7.57;2.70;;;25.90;79.90;;;;;;4990019;28;20451;-71
2022/06/16 10:58:49;;;;;;;7.47;2.70;;;26.00;78.70;;;;;;4999993;28;20042;-70
2022/06/16 11:01:19;;;;;;;8.18;3.25;;;26.00;79.90;;;;;;5005296;28;20107;-71
2022/06/16 11:03:51;;;;;;;6.22;2.38;;;26.00;75.20;;;;;;5000028;28;20042;-69
2022/06/16 11:06:21;;;;;;;9.27;4.20;;;25.70;75.40;;;;;;5003937;28;20080;-69
2022/06/16 11:09:00;;;;;;;28.98;15.57;;;25.70;79.30;;;;;;5002155;28;20585;-68
2022/06/16 11:11:42;;;;;;;10.02;3.17;;;25.70;77.30;;;;;;5005022;28;20568;-71
2022/06/16 11:14:18;;;;;;;6.93;2.25;;;25.30;76.80;;;;;;5001462;28;20061;-69
2022/06/16 11:16:53;;;;;;;8.25;3.05;;;24.70;75.90;;;;;;4998998;28;20123;-69
2022/06/16 11:19:29;;;;;;;6.53;2.10;;;24.60;79.30;;;;;;5003895;28;20271;-69
2022/06/16 11:21:56;;;;;;;5.72;2.75;;;24.80;80.20;;;;;;5006131;28;20403;-69
2022/06/16 11:24:33;;;;;;;5.72;2.08;;;25.00;79.50;;;;;;5000981;28;20034;-67
2022/06/16 11:27:11;;;;;;;8.82;2.90;;;25.30;80.80;;;;;;5011405;28;20083;-69
2022/06/16 11:29:41;;;;;;;8.35;2.25;;;25.50;76.00;;;;;;5007024;28;20045;-69
2022/06/16 11:32:20;;;;;;;6.68;2.80;;;25.60;77.60;;;;;;5007360;28;20034;-68
2022/06/16 11:34:47;;;;;;;6.78;2.00;;;25.80;78.90;;;;;;5005689;28;20107;-68
2022/06/16 11:37:34;;;;;;;6.07;2.30;;;25.80;78.00;;;;;;5007275;28;20066;-68
2022/06/16 11:40:12;;;;;;;5.85;2.05;;;25.70;77.60;;;;;;4990639;28;20441;-69
2022/06/16 11:42:56;;;;;;;7.15;2.20;;;25.60;77.40;;;;;;5000979;28;20038;-67
2022/06/16 11:45:46;;;;;;;8.15;1.80;;;25.70;77.70;;;;;;5021762;28;20478;-67
2022/06/16 11:48:31;;;;;;;5.85;2.10;;;25.80;79.10;;;;;;5017135;28;20074;-68
2022/06/16 11:51:17;;;;;;;5.53;1.92;;;26.00;78.70;;;;;;5004429;28;20069;-67
2022/06/16 11:53:46;;;;;;;5.88;2.28;;;26.10;76.60;;;;;;5008248;28;20509;-68
2022/06/16 11:56:33;;;;;;;6.55;2.20;;;26.00;74.40;;;;;;5016028;28;20421;-68
2022/06/16 11:59:47;;;;;;;4.88;1.90;;;26.00;75.20;;;;;;4992412;28;20443;-69
2022/06/16 12:02:33;;;;;;;5.85;2.30;;;25.90;73.70;;;;;;5000238;28;20078;-67
2022/06/16 12:05:01;;;;;;;4.68;2.15;;;25.80;76.30;;;;;;5002172;28;20045;-67
2022/06/16 12:07:49;;;;;;;7.93;2.20;;;25.70;74.40;;;;;;5013505;28;20046;-67
2022/06/16 12:10:26;;;;;;;4.88;1.80;;;25.70;72.70;;;;;;4994576;28;20569;-68
2022/06/16 12:12:59;;;;;;;9.15;2.63;;;25.70;73.50;;;;;;4997006;28;20120;-68
2022/06/16 12:15:42;;;;;;;8.98;2.50;;;25.80;75.80;;;;;;5003363;28;20765;-69
2022/06/16 12:18:30;;;;;;;6.32;2.20;;;25.80;74.50;;;;;;4996673;28;20706;-67
2022/06/16 12:21:34;;;;;;;5.72;2.28;;;25.70;73.20;;;;;;4999968;28;20085;-69
2022/06/16 12:24:24;;;;;;;7.72;2.45;;;25.50;74.00;;;;;;5015513;28;20085;-70
2022/06/16 12:27:18;;;;;;;6.95;2.33;;;25.30;71.70;;;;;;4998705;28;20093;-69
2022/06/16 12:30:18;;;;;;;5.25;2.25;;;25.10;74.80;;;;;;4997615;28;20045;-71
2022/06/16 12:32:55;;;;;;;4.97;2.00;;;25.10;71.80;;;;;;4999747;28;20085;-71
2022/06/16 12:35:32;;;;;;;9.93;2.20;;;25.20;71.80;;;;;;5005639;28;20073;-70
2022/06/16 12:38:17;;;;;;;4.93;1.80;;;25.20;73.10;;;;;;4989015;28;20499;-71
2022/06/16 12:40:54;;;;;;;6.68;2.50;;;25.30;72.10;;;;;;4979207;28;20057;-70
2022/06/16 12:43:42;;;;;;;6.15;2.40;;;25.20;70.40;;;;;;4998013;28;20091;-71
2022/06/16 12:46:14;;;;;;;7.35;2.50;;;25.00;70.30;;;;;;5000303;28;20119;-70
2022/06/16 12:49:02;;;;;;;6.20;2.15;;;25.00;72.70;;;;;;4994173;28;20053;-71
2022/06/16 12:51:35;;;;;;;7.43;2.30;;;25.10;75.10;;;;;;4996672;28;20053;-72
2022/06/16 12:54:08;;;;;;;6.63;2.20;;;25.10;72.00;;;;;;4996659;28;20069;-71
2022/06/16 12:56:40;;;;;;;7.85;2.38;;;25.10;73.10;;;;;;4982542;28;20046;-71
2022/06/16 12:59:22;;;;;;;5.32;2.42;;;25.00;70.20;;;;;;4992372;28;20132;-73
2022/06/16 13:01:52;;;;;;;6.05;2.40;;;24.70;70.60;;;;;;4974877;28;20045;-71
2022/06/16 13:04:30;;;;;;;6.78;2.53;;;24.40;70.90;;;;;;4993715;28;20042;-70
2022/06/16 13:06:59;;;;;;;7.18;2.50;;;24.30;71.70;;;;;;5004614;28;20106;-71
2022/06/16 13:09:25;;;;;;;5.97;2.00;;;24.40;71.20;;;;;;4987345;28;20085;-70
2022/06/16 13:12:31;;;;;;;5.53;2.35;;;24.50;73.10;;;;;;4989557;28;20470;-71
2022/06/16 13:14:59;;;;;;;5.80;1.92;;;24.70;73.90;;;;;;4964011;28;20068;-72
2022/06/16 13:17:29;;;;;;;6.82;2.30;;;24.70;72.30;;;;;;4993295;28;20053;-72
2022/06/16 13:20:00;;;;;;;6.63;2.30;;;24.80;73.40;;;;;;4996214;28;20038;-72
2022/06/16 13:22:31;;;;;;;;;;;24.90;72.50;;;;;;4996985;28;20042;-72
2022/06/16 13:25:00;;;;;;;7.80;2.25;;;24.90;71.50;;;;;;4997726;28;19972;-70
2022/06/16 13:27:53;;;;;;;7.63;2.45;;;24.80;71.60;;;;;;4992444;28;20046;-69